Time;durP1;ratioP1;P1;durP2;ratioP2;P2;SDS_P1;SDS_P2;PMS_P1;PMS_P2;Temp;Humidity;BMP_temperature;BMP_pressure;BME280_temperature;BME280_humidity;BME280_pressure;Samples;Min_cycle;Max_cycle;Signal;HPM_P1;HPM_P2
2022/09/15 00:01:31;;;;;;;0.93;0.77;;;;;;;16.46;88.86;99549.97;4984121;28;20485;-72
2022/09/15 00:03:57;;;;;;;2.05;0.50;;;;;;;16.46;88.72;99541.81;4972188;28;20082;-72
2022/09/15 00:06:22;;;;;;;2.08;0.75;;;;;;;16.50;88.69;99542.53;4971795;28;20065;-73
2022/09/15 00:08:48;;;;;;;3.20;1.10;;;;;;;16.51;88.46;99549.50;4972018;28;20038;-72
2022/09/15 00:11:26;;;;;;;2.92;0.98;;;;;;;16.57;88.15;99542.38;4971620;28;20133;-72
2022/09/15 00:13:52;;;;;;;4.18;0.73;;;;;;;16.57;88.21;99545.09;4953577;28;20101;-72
2022/09/15 00:16:20;;;;;;;1.75;0.73;;;;;;;16.62;88.00;99539.94;4973213;28;20042;-73
2022/09/15 00:18:46;;;;;;;0.80;0.77;;;;;;;16.56;87.89;99538.13;4966837;28;20078;-72
2022/09/15 00:21:14;;;;;;;3.00;0.90;;;;;;;16.56;87.98;99543.56;4972736;28;20411;-73
2022/09/15 00:23:40;;;;;;;1.35;0.65;;;;;;;16.60;87.91;99553.19;4969717;28;20153;-72
2022/09/15 00:26:11;;;;;;;3.50;0.82;;;;;;;16.56;87.87;99541.63;4971168;28;20129;-72
2022/09/15 00:28:37;;;;;;;0.50;0.50;;;;;;;16.65;87.42;99549.16;4971751;28;20042;-72
2022/09/15 00:31:09;;;;;;;0.98;0.75;;;;;;;16.72;87.38;99551.75;4976377;28;20121;-72
2022/09/15 00:33:35;;;;;;;1.83;0.68;;;;;;;16.71;87.00;99553.69;4971183;28;20042;-72
2022/09/15 00:36:22;;;;;;;1.90;1.13;;;;;;;16.71;87.28;99558.38;4972104;28;20066;-72
2022/09/15 00:38:48;;;;;;;2.55;0.93;;;;;;;16.83;86.80;99560.44;4937133;29;20093;-72
2022/09/15 00:41:16;;;;;;;0.50;0.50;;;;;;;16.81;86.73;99563.56;4929697;29;20746;-73
2022/09/15 00:43:56;;;;;;;0.60;0.50;;;;;;;16.84;86.67;99565.44;4943173;29;20051;-73
2022/09/15 00:46:29;;;;;;;0.73;0.60;;;;;;;16.94;86.58;99567.16;4937787;29;20035;-72
2022/09/15 00:49:00;;;;;;;0.43;0.43;;;;;;;16.98;86.84;99573.28;4926467;29;20067;-72
2022/09/15 00:51:32;;;;;;;0.90;0.57;;;;;;;17.08;87.19;99566.06;4943974;29;20035;-73
2022/09/15 00:54:00;;;;;;;4.53;0.70;;;;;;;17.13;87.91;99560.84;4929360;29;20046;-73
2022/09/15 00:56:27;;;;;;;4.03;0.98;;;;;;;17.19;88.49;99560.38;4937354;29;20050;-73
2022/09/15 00:58:59;;;;;;;1.73;0.60;;;;;;;17.23;88.80;99555.59;4933928;29;20508;-72
2022/09/15 01:01:29;;;;;;;3.33;0.60;;;;;;;17.27;89.00;99551.59;4934057;29;20040;-72
2022/09/15 01:03:54;;;;;;;0.50;0.50;;;;;;;17.22;89.75;99557.56;4937181;29;20070;-73
2022/09/15 01:06:32;;;;;;;0.80;0.60;;;;;;;17.20;90.18;99565.38;4943510;29;20031;-73
2022/09/15 01:09:25;;;;;;;0.55;0.52;;;;;;;17.23;90.77;99566.50;4938675;29;20058;-71
2022/09/15 01:11:51;;;;;;;0.95;0.60;;;;;;;17.16;91.25;99561.97;4938812;29;20043;-72
2022/09/15 01:14:16;;;;;;;4.78;0.93;;;;;;;17.15;91.77;99558.47;4942197;29;20043;-73
2022/09/15 01:16:51;;;;;;;3.55;0.80;;;;;;;17.20;91.50;99551.78;4967644;28;20484;-72
2022/09/15 01:19:40;;;;;;;1.55;0.50;;;;;;;17.20;92.13;99551.00;4971150;28;20023;-72
2022/09/15 01:22:27;;;;;;;0.80;0.70;;;;;;;17.17;92.15;99546.41;4967845;28;20309;-72
2022/09/15 01:25:13;;;;;;;2.83;0.80;;;;;;;17.21;91.97;99544.38;4970685;28;20043;-73
2022/09/15 01:28:00;;;;;;;0.80;0.50;;;;;;;17.17;92.23;99541.72;4967872;28;20038;-73
2022/09/15 01:30:33;;;;;;;0.80;0.57;;;;;;;17.17;92.45;99536.28;4971262;28;20031;-73
2022/09/15 01:33:19;;;;;;;0.47;0.40;;;;;;;17.21;92.60;99552.53;4971198;28;20042;-73
2022/09/15 01:36:09;;;;;;;0.88;0.57;;;;;;;17.19;92.54;99554.91;4967643;28;20045;-73
2022/09/15 01:38:59;;;;;;;0.55;0.52;;;;;;;17.22;92.73;99559.50;4952235;28;20109;-70
2022/09/15 01:41:36;;;;;;;1.15;0.52;;;;;;;17.16;92.90;99551.09;4967229;28;20034;-69
2022/09/15 01:44:08;;;;;;;0.90;0.55;;;;;;;17.22;92.88;99551.34;4969826;28;20042;-70
2022/09/15 01:46:38;;;;;;;0.88;0.45;;;;;;;17.22;93.06;99551.34;4970487;28;20503;-74
2022/09/15 01:49:08;;;;;;;4.50;0.60;;;;;;;17.21;92.90;99550.56;4969313;28;20041;-69
2022/09/15 01:51:35;;;;;;;1.63;0.82;;;;;;;17.25;93.28;99555.94;4967074;28;20571;-69
2022/09/15 01:54:04;;;;;;;0.60;0.60;;;;;;;17.28;92.94;99549.63;4969269;28;20070;-70
2022/09/15 01:56:30;;;;;;;0.75;0.57;;;;;;;17.26;92.88;99552.00;4980992;28;20043;-70
2022/09/15 01:58:56;;;;;;;0.75;0.70;;;;;;;17.30;92.33;99548.03;4971657;28;20039;-70
2022/09/15 02:01:39;;;;;;;1.55;0.85;;;;;;;17.29;92.46;99549.19;4975257;28;20030;-69
2022/09/15 02:04:20;;;;;;;1.45;0.60;;;;;;;17.27;91.79;99553.53;4974495;28;20619;-69
2022/09/15 02:07:02;;;;;;;1.20;0.77;;;;;;;17.25;91.44;99551.25;4974309;28;20035;-70
2022/09/15 02:10:12;;;;;;;0.50;0.50;;;;;;;17.23;91.81;99552.88;4973536;28;20046;-69
2022/09/15 02:12:46;;;;;;;1.17;0.60;;;;;;;17.31;91.46;99559.66;4969894;28;20051;-70
2022/09/15 02:15:16;;;;;;;1.33;0.98;;;;;;;17.31;90.44;99560.44;4974804;28;20065;-70
2022/09/15 02:17:52;;;;;;;1.33;0.80;;;;;;;17.20;91.20;99553.72;4975633;28;20042;-71
2022/09/15 02:20:37;;;;;;;1.10;0.70;;;;;;;17.22;90.96;99551.34;4974287;28;20042;-69
2022/09/15 02:23:42;;;;;;;3.67;1.08;;;;;;;17.25;90.87;99553.97;4967089;28;20520;-69
2022/09/15 02:26:12;;;;;;;1.48;0.60;;;;;;;17.20;90.76;99551.78;4933968;28;20055;-70
2022/09/15 02:28:41;;;;;;;1.07;0.83;;;;;;;17.25;90.70;99553.97;4966875;28;20058;-70
2022/09/15 02:31:11;;;;;;;1.70;0.52;;;;;;;17.24;90.58;99547.00;4969950;28;20329;-69
2022/09/15 02:33:43;;;;;;;1.55;0.98;;;;;;;17.29;90.49;99562.81;4972599;28;20042;-70
2022/09/15 02:36:14;;;;;;;0.52;0.52;;;;;;;17.22;90.64;99556.78;4988280;28;20046;-70
2022/09/15 02:38:45;;;;;;;0.43;0.40;;;;;;;17.33;89.51;99555.31;4974117;28;20035;-71
2022/09/15 02:41:13;;;;;;;2.20;0.70;;;;;;;17.25;89.86;99542.34;4970260;28;20052;-69
2022/09/15 02:43:48;;;;;;;2.25;0.52;;;;;;;17.24;89.94;99557.91;4974373;28;20027;-71
2022/09/15 02:46:16;;;;;;;1.00;0.88;;;;;;;17.24;89.56;99541.56;4971872;28;20043;-72
2022/09/15 02:48:42;;;;;;;1.00;0.85;;;;;;;17.22;90.37;99548.63;4972051;28;20062;-72
2022/09/15 02:51:07;;;;;;;0.60;0.50;;;;;;;17.26;90.29;99552.00;4971301;28;20102;-70
2022/09/15 02:53:33;;;;;;;1.95;0.68;;;;;;;17.30;89.90;99566.31;4972257;28;20392;-70
2022/09/15 02:55:59;;;;;;;1.92;0.80;;;;;;;17.25;90.64;99573.00;4970920;28;20085;-70
2022/09/15 02:58:24;;;;;;;2.70;0.93;;;;;;;17.22;91.28;99565.72;4981352;28;20110;-71
2022/09/15 03:00:49;;;;;;;0.88;0.50;;;;;;;17.17;92.45;99566.97;4973903;28;20045;-71
2022/09/15 03:03:17;;;;;;;2.80;0.77;;;;;;;17.23;92.09;99575.41;4971592;28;20114;-71
2022/09/15 03:05:42;;;;;;;0.75;0.65;;;;;;;17.23;92.82;99572.69;4958081;28;20126;-71
2022/09/15 03:08:08;;;;;;;3.17;0.80;;;;;;;17.13;93.41;99579.91;4964320;28;20528;-70
2022/09/15 03:10:33;;;;;;;1.13;0.88;;;;;;;17.06;94.97;99574.66;4970192;28;20118;-70
2022/09/15 03:12:59;;;;;;;0.80;0.55;;;;;;;17.08;94.48;99568.78;4973627;28;20039;-70
2022/09/15 03:15:25;;;;;;;5.05;0.93;;;;;;;17.10;94.82;99556.28;4971576;28;20117;-70
2022/09/15 03:17:52;;;;;;;0.80;0.77;;;;;;;17.09;95.26;99548.56;4973701;28;20034;-71
2022/09/15 03:20:21;;;;;;;0.70;0.50;;;;;;;17.09;95.39;99560.19;4972452;28;20035;-70
2022/09/15 03:22:48;;;;;;;1.08;0.80;;;;;;;17.07;95.81;99570.72;4972277;28;20385;-69
2022/09/15 03:25:14;;;;;;;1.02;0.80;;;;;;;17.09;95.93;99564.88;4971590;28;20030;-72
2022/09/15 03:27:41;;;;;;;4.70;0.90;;;;;;;17.08;95.89;99571.50;4974486;28;20046;-70
2022/09/15 03:30:08;;;;;;;2.08;1.00;;;;;;;17.05;96.20;99567.66;4975163;28;20042;-70
2022/09/15 03:32:34;;;;;;;1.88;1.00;;;;;;;17.09;95.84;99570.31;4972988;28;20429;-71
2022/09/15 03:34:59;;;;;;;1.13;0.95;;;;;;;17.05;96.17;99572.34;4983774;23;20034;-67
2022/09/15 03:37:25;;;;;;;1.25;0.70;;;;;;;17.04;96.57;99571.59;5002560;28;20045;-68
2022/09/15 03:39:51;;;;;;;4.43;0.90;;;;;;;16.96;96.48;99580.31;5000729;28;20034;-68
2022/09/15 03:42:16;;;;;;;1.33;0.60;;;;;;;16.96;97.15;99569.44;5010935;28;20079;-68
2022/09/15 03:44:42;;;;;;;3.67;1.00;;;;;;;16.91;97.41;99567.22;5002701;28;20030;-68
2022/09/15 03:47:07;;;;;;;0.73;0.68;;;;;;;16.94;97.48;99567.16;5031834;28;20033;-68
2022/09/15 03:49:33;;;;;;;1.05;0.85;;;;;;;16.98;97.52;99576.00;5026010;28;20524;-65
2022/09/15 03:51:58;;;;;;;1.42;0.73;;;;;;;17.04;97.27;99592.56;5029256;28;20040;-65
2022/09/15 03:54:25;;;;;;;4.13;0.82;;;;;;;17.03;97.43;99585.63;5029769;28;20037;-65
2022/09/15 03:56:51;;;;;;;2.50;0.75;;;;;;;17.04;97.39;99584.41;5017867;28;20041;-65
2022/09/15 03:59:18;;;;;;;1.10;0.82;;;;;;;17.06;97.39;99588.25;5018447;28;20030;-65
2022/09/15 04:01:44;;;;;;;1.63;0.95;;;;;;;17.05;97.92;99585.97;5018088;28;20146;-65
2022/09/15 04:04:10;;;;;;;0.95;0.77;;;;;;;17.08;97.17;99582.38;5018007;28;20021;-65
2022/09/15 04:06:37;;;;;;;1.13;0.75;;;;;;;17.05;97.48;99564.19;5020980;28;20034;-65
2022/09/15 04:09:03;;;;;;;1.27;1.10;;;;;;;17.03;97.81;99574.72;5020242;28;20083;-65
2022/09/15 04:11:30;;;;;;;1.75;0.90;;;;;;;16.95;98.58;99573.38;5013927;28;20055;-65
2022/09/15 04:13:55;;;;;;;3.60;0.85;;;;;;;16.95;99.07;99567.91;5023627;28;20578;-65
2022/09/15 04:16:23;;;;;;;1.10;0.70;;;;;;;16.96;98.82;99558.56;5025542;28;20033;-65
2022/09/15 04:18:50;;;;;;;2.05;1.27;;;;;;;16.96;98.64;99564.78;5022076;28;20092;-64
2022/09/15 04:21:20;;;;;;;2.20;1.17;;;;;;;16.89;98.93;99564.19;4999736;28;20422;-65
2022/09/15 04:23:46;;;;;;;2.53;1.00;;;;;;;16.80;99.83;99561.28;5014700;28;20470;-65
2022/09/15 04:26:20;;;;;;;2.53;1.30;;;;;;;16.80;99.48;99561.28;5014494;28;20042;-65
2022/09/15 04:28:46;;;;;;;2.15;1.50;;;;;;;16.81;99.85;99560.06;5037883;28;20434;-66
2022/09/15 04:31:14;;;;;;;2.35;1.02;;;;;;;16.82;99.22;99556.19;4999030;28;20072;-65
2022/09/15 04:33:41;;;;;;;2.38;1.48;;;;;;;16.81;99.49;99551.91;5010545;28;20092;-65
2022/09/15 04:36:15;;;;;;;1.80;1.33;;;;;;;16.82;99.56;99553.47;5011053;28;20030;-65
2022/09/15 04:38:41;;;;;;;3.38;1.23;;;;;;;16.85;99.48;99555.31;5011630;28;20426;-65
2022/09/15 04:41:07;;;;;;;2.80;1.10;;;;;;;16.83;98.96;99554.97;5004248;28;20084;-65
2022/09/15 04:43:33;;;;;;;1.90;0.90;;;;;;;16.75;99.98;99559.06;5016045;28;20378;-65
2022/09/15 04:45:58;;;;;;;1.33;0.95;;;;;;;16.75;99.70;99550.88;5022024;28;20038;-65
2022/09/15 04:48:25;;;;;;;1.83;1.17;;;;;;;16.72;100.00;99551.75;5011438;28;20040;-65
2022/09/15 04:50:50;;;;;;;1.35;0.90;;;;;;;16.72;100.00;99554.47;5010021;28;20053;-65
2022/09/15 04:53:16;;;;;;;3.33;1.48;;;;;;;16.75;99.57;99559.81;5016835;28;20497;-64
2022/09/15 04:55:42;;;;;;;2.45;1.00;;;;;;;16.69;99.60;99549.84;5030684;28;20036;-65
2022/09/15 04:58:08;;;;;;;0.63;0.63;;;;;;;16.66;99.69;99559.66;5025753;28;20514;-66
2022/09/15 05:00:44;;;;;;;0.95;0.77;;;;;;;16.68;99.36;99554.56;5023377;28;20041;-65
2022/09/15 05:03:11;;;;;;;3.78;0.75;;;;;;;16.69;99.80;99555.28;5018046;28;20030;-65
2022/09/15 05:05:37;;;;;;;2.65;1.10;;;;;;;16.69;99.91;99552.59;5000855;28;20120;-65
2022/09/15 05:08:03;;;;;;;2.17;0.90;;;;;;;16.70;100.00;99549.47;5012488;28;20069;-64
2022/09/15 05:10:28;;;;;;;2.88;0.95;;;;;;;16.77;99.31;99556.66;5004341;28;20036;-65
2022/09/15 05:12:54;;;;;;;2.45;1.10;;;;;;;16.77;99.54;99548.50;5016312;28;20045;-64
2022/09/15 05:15:19;;;;;;;2.63;0.82;;;;;;;16.79;99.28;99554.28;5018989;28;20118;-65
2022/09/15 05:17:45;;;;;;;1.98;1.00;;;;;;;16.80;99.29;99550.41;5009509;28;20025;-65
2022/09/15 05:20:11;;;;;;;3.88;0.80;;;;;;;16.75;99.83;99556.34;5000777;28;20502;-64
2022/09/15 05:22:36;;;;;;;2.45;0.93;;;;;;;16.78;99.40;99552.78;5015551;28;20050;-65
2022/09/15 05:25:02;;;;;;;3.55;0.85;;;;;;;16.80;99.62;99548.44;5008391;28;20041;-65
2022/09/15 05:27:31;;;;;;;1.15;1.00;;;;;;;16.82;99.56;99550.75;5003662;28;20029;-65
2022/09/15 05:29:57;;;;;;;3.50;1.15;;;;;;;16.79;99.73;99554.28;5017010;28;20063;-65
2022/09/15 05:32:22;;;;;;;1.15;0.82;;;;;;;16.83;99.51;99544.88;5002362;28;20386;-65
2022/09/15 05:34:48;;;;;;;1.10;0.70;;;;;;;16.84;98.96;99549.13;5004201;28;20095;-65
2022/09/15 05:37:13;;;;;;;1.52;0.68;;;;;;;16.78;99.37;99552.78;5013527;28;20052;-65
2022/09/15 05:39:39;;;;;;;0.90;0.65;;;;;;;16.83;99.17;99546.81;5010520;28;20034;-65
2022/09/15 05:42:05;;;;;;;0.90;0.70;;;;;;;16.81;98.87;99546.47;5001898;28;20034;-65
2022/09/15 05:44:31;;;;;;;2.03;0.98;;;;;;;16.85;98.78;99544.44;5017370;28;20025;-66
2022/09/15 05:46:56;;;;;;;1.35;0.70;;;;;;;16.84;98.92;99548.38;5025993;28;20041;-66
2022/09/15 05:49:22;;;;;;;1.52;0.60;;;;;;;16.86;99.23;99548.72;5027696;28;20061;-65
2022/09/15 05:51:47;;;;;;;1.23;0.30;;;;;;;16.88;98.63;99543.59;5018493;28;20107;-66
2022/09/15 05:54:12;;;;;;;0.95;0.45;;;;;;;16.94;98.54;99547.34;5021094;28;20459;-65
2022/09/15 05:56:38;;;;;;;1.58;0.55;;;;;;;17.01;98.18;99549.91;5029299;28;20033;-65
2022/09/15 05:59:03;;;;;;;2.72;0.65;;;;;;;16.91;98.47;99553.63;5025901;28;20040;-65
2022/09/15 06:01:29;;;;;;;1.35;0.60;;;;;;;16.95;97.74;99563.25;5029454;28;20374;-65
2022/09/15 06:03:56;;;;;;;1.52;0.55;;;;;;;16.99;97.49;99558.47;5017790;28;20029;-64
2022/09/15 06:06:23;;;;;;;1.75;0.68;;;;;;;16.94;97.33;99561.72;5013533;28;20041;-65
2022/09/15 06:08:51;;;;;;;3.05;0.60;;;;;;;16.96;97.69;99562.06;5011931;28;20098;-65
2022/09/15 06:11:19;;;;;;;2.05;0.50;;;;;;;16.99;97.25;99568.59;5023664;28;20482;-65
2022/09/15 06:13:45;;;;;;;2.22;0.57;;;;;;;16.98;97.17;99567.06;5024916;28;20627;-65
2022/09/15 06:16:22;;;;;;;1.60;0.50;;;;;;;17.04;96.19;99566.13;5015748;28;20044;-64
2022/09/15 06:18:50;;;;;;;2.92;0.77;;;;;;;16.99;95.85;99566.63;5025848;28;20064;-65
2022/09/15 06:21:18;;;;;;;1.65;0.50;;;;;;;16.96;95.75;99564.00;5020991;28;20041;-65
2022/09/15 06:23:44;;;;;;;2.92;1.10;;;;;;;17.03;95.64;99563.84;5010553;28;20034;-65
2022/09/15 06:26:15;;;;;;;3.50;0.63;;;;;;;17.05;95.41;99569.63;5021817;28;20449;-65
2022/09/15 06:28:47;;;;;;;5.07;0.85;;;;;;;17.08;94.83;99568.78;5012723;28;20109;-65
2022/09/15 06:31:13;;;;;;;0.95;0.55;;;;;;;17.09;94.98;99560.19;5010778;28;20038;-64
2022/09/15 06:33:43;;;;;;;2.47;0.30;;;;;;;17.22;95.16;99567.66;5009555;28;20029;-66
2022/09/15 06:36:13;;;;;;;1.60;0.68;;;;;;;17.24;95.15;99568.00;5010889;28;20044;-66
2022/09/15 06:38:39;;;;;;;3.30;0.50;;;;;;;17.30;94.80;99567.06;5009434;28;20390;-65
2022/09/15 06:41:05;;;;;;;1.08;0.40;;;;;;;17.35;93.74;99569.28;5024167;28;20045;-66
2022/09/15 06:43:32;;;;;;;3.88;0.60;;;;;;;17.38;94.07;99571.13;5009461;28;20026;-66
2022/09/15 06:46:04;;;;;;;0.70;0.43;;;;;;;17.45;93.59;99581.09;5008811;28;20099;-65
2022/09/15 06:48:31;;;;;;;5.95;0.65;;;;;;;17.52;93.02;99586.38;5003175;28;20117;-65
2022/09/15 06:50:57;;;;;;;0.28;0.25;;;;;;;17.43;92.69;99586.19;5014247;28;20367;-65
2022/09/15 06:53:22;;;;;;;4.90;0.73;;;;;;;17.37;92.89;99596.84;5028113;28;20072;-65
2022/09/15 06:55:48;;;;;;;0.63;0.40;;;;;;;17.50;92.47;99584.09;5009993;28;20077;-66
2022/09/15 06:58:14;;;;;;;1.02;0.40;;;;;;;17.52;92.38;99595.31;5010076;28;20042;-65
2022/09/15 07:00:41;;;;;;;0.88;0.45;;;;;;;17.40;92.66;99608.84;5006392;28;20044;-65
2022/09/15 07:03:06;;;;;;;4.60;0.60;;;;;;;17.43;92.55;99614.19;5031040;28;20033;-63
2022/09/15 07:05:32;;;;;;;1.45;0.70;;;;;;;17.32;92.89;99616.41;5030339;28;20208;-65
2022/09/15 07:07:57;;;;;;;4.72;0.70;;;;;;;17.31;93.63;99617.59;5020402;28;20030;-64
2022/09/15 07:10:23;;;;;;;1.83;0.80;;;;;;;17.30;93.31;99618.78;5016268;28;20114;-65
2022/09/15 07:12:48;;;;;;;2.15;0.80;;;;;;;17.33;93.80;99615.22;5027479;28;20040;-65
2022/09/15 07:15:14;;;;;;;3.88;0.60;;;;;;;17.38;93.97;99605.78;5019165;28;20057;-65
2022/09/15 07:17:39;;;;;;;1.60;0.57;;;;;;;17.40;93.82;99598.69;5027963;28;20031;-65
2022/09/15 07:20:05;;;;;;;1.10;0.50;;;;;;;17.45;93.84;99594.69;5008924;28;20371;-64
2022/09/15 07:22:30;;;;;;;0.52;0.50;;;;;;;17.56;94.11;99609.59;5026018;28;20037;-65
2022/09/15 07:24:56;;;;;;;4.53;0.70;;;;;;;17.75;93.64;99607.97;5024388;28;20049;-64
2022/09/15 07:27:25;;;;;;;0.40;0.30;;;;;;;17.92;93.60;99601.28;5023682;28;20029;-65
2022/09/15 07:29:51;;;;;;;1.02;0.40;;;;;;;18.16;93.35;99605.28;5023233;28;20041;-65
2022/09/15 07:32:16;;;;;;;0.65;0.32;;;;;;;18.34;92.95;99612.97;5023595;28;20041;-66
2022/09/15 07:34:42;;;;;;;1.30;0.38;;;;;;;18.48;92.56;99610.66;5028756;28;20037;-65
2022/09/15 07:37:07;;;;;;;0.55;0.50;;;;;;;18.76;91.37;99614.50;5032065;28;20037;-65
2022/09/15 07:39:32;;;;;;;1.55;0.60;;;;;;;19.03;90.74;99614.09;5017241;28;20033;-65
2022/09/15 07:41:58;;;;;;;0.82;0.30;;;;;;;19.24;88.69;99618.88;4994885;28;20030;-65
2022/09/15 07:44:24;;;;;;;1.20;0.47;;;;;;;19.29;88.29;99615.59;5021995;28;20037;-66
2022/09/15 07:46:49;;;;;;;4.03;0.50;;;;;;;19.43;87.32;99623.38;5017262;28;20049;-65
2022/09/15 07:49:15;;;;;;;0.35;0.35;;;;;;;19.62;86.80;99628.56;5012835;28;20026;-65
2022/09/15 07:51:41;;;;;;;2.88;0.70;;;;;;;19.83;85.82;99626.31;5018874;28;20052;-65
2022/09/15 07:54:07;;;;;;;2.65;0.38;;;;;;;19.85;85.41;99629.38;5014032;28;20038;-65
2022/09/15 07:56:33;;;;;;;2.28;0.50;;;;;;;19.73;84.12;99630.94;5014706;28;20037;-65
2022/09/15 07:58:58;;;;;;;0.40;0.40;;;;;;;19.49;84.44;99621.59;5013807;28;20100;-65
2022/09/15 08:01:24;;;;;;;0.52;0.40;;;;;;;19.43;84.58;99626.09;5013052;28;20397;-66
2022/09/15 08:03:50;;;;;;;1.95;0.32;;;;;;;19.41;84.46;99625.75;5023105;28;20038;-65
2022/09/15 08:06:18;;;;;;;0.38;0.30;;;;;;;19.45;83.21;99629.16;5014305;28;20030;-64
2022/09/15 08:08:44;;;;;;;10.10;0.60;;;;;;;19.69;82.61;99628.31;5012668;28;20048;-66
2022/09/15 08:11:13;;;;;;;2.60;0.20;;;;;;;19.79;81.23;99632.66;5016030;28;20052;-65
2022/09/15 08:13:39;;;;;;;1.92;0.28;;;;;;;20.00;80.19;99630.41;5011225;28;20030;-65
2022/09/15 08:16:10;;;;;;;2.25;0.28;;;;;;;20.06;78.81;99642.31;5019363;28;20037;-65
2022/09/15 08:18:37;;;;;;;0.70;0.35;;;;;;;20.24;79.54;99635.03;5014240;28;20029;-65
2022/09/15 08:21:04;;;;;;;4.13;0.50;;;;;;;20.49;78.93;99636.88;5023060;28;20034;-65
2022/09/15 08:23:29;;;;;;;4.53;0.40;;;;;;;20.88;77.67;99641.66;5022711;28;20044;-65
2022/09/15 08:25:55;;;;;;;2.65;0.30;;;;;;;20.93;76.54;99643.03;5008415;28;20038;-65
2022/09/15 08:28:20;;;;;;;2.85;0.50;;;;;;;21.16;76.23;99656.25;5023930;28;20029;-66
2022/09/15 08:30:46;;;;;;;1.52;0.40;;;;;;;21.31;75.19;99652.50;5015196;28;20072;-65
2022/09/15 08:33:11;;;;;;;1.92;0.50;;;;;;;21.30;72.96;99648.25;5011245;28;20034;-65
2022/09/15 08:35:36;;;;;;;2.38;0.70;;;;;;;21.28;73.45;99655.38;5008407;28;20046;-66
2022/09/15 08:38:02;;;;;;;2.25;1.00;;;;;;;21.17;73.65;99649.56;5010336;28;20029;-66
2022/09/15 08:40:34;;;;;;;6.13;1.17;;;;;;;21.09;73.57;99657.31;5003566;28;20117;-65
2022/09/15 08:43:15;;;;;;;0.52;0.43;;;;;;;20.99;74.35;99657.66;5007322;28;20398;-65
2022/09/15 08:45:51;;;;;;;0.77;0.30;;;;;;;20.86;75.00;99663.25;5009667;28;20462;-66
2022/09/15 08:48:23;;;;;;;0.88;0.30;;;;;;;20.84;74.40;99657.47;5002984;28;20042;-65
2022/09/15 08:50:53;;;;;;;2.00;0.25;;;;;;;20.84;74.21;99660.19;5023350;28;20053;-65
2022/09/15 08:53:34;;;;;;;1.02;0.52;;;;;;;21.03;72.96;99663.81;5014987;28;20402;-66
2022/09/15 08:56:03;;;;;;;0.17;0.10;;;;;;;21.00;73.37;99654.47;5008520;28;20048;-66
2022/09/15 08:58:33;;;;;;;1.52;0.40;;;;;;;21.15;73.74;99657.47;5007913;28;20275;-65
2022/09/15 09:01:13;;;;;;;0.50;0.50;;;;;;;21.30;71.67;99658.44;5011700;28;20040;-66
2022/09/15 09:04:00;;;;;;;1.33;0.60;;;;;;;21.33;71.84;99665.75;5010964;28;20161;-65
2022/09/15 09:06:37;;;;;;;1.17;0.52;;;;;;;21.33;70.95;99665.75;5018880;28;20045;-65
2022/09/15 09:09:36;;;;;;;0.65;0.30;;;;;;;21.21;71.68;99672.09;5008829;28;20034;-65
2022/09/15 09:12:34;;;;;;;0.80;0.20;;;;;;;21.19;71.16;99674.53;5019872;28;20124;-65
2022/09/15 09:15:45;;;;;;;0.80;0.28;;;;;;;21.32;70.78;99666.97;5007845;28;20541;-65
2022/09/15 09:18:21;;;;;;;2.35;0.20;;;;;;;21.59;68.40;99667.03;4972337;28;20445;-66
2022/09/15 09:20:50;;;;;;;0.98;0.30;;;;;;;21.80;68.61;99666.19;5018902;28;20038;-65
2022/09/15 09:23:23;;;;;;;3.80;0.40;;;;;;;22.19;66.69;99664.53;5012597;28;20036;-65
2022/09/15 09:25:48;;;;;;;2.05;0.30;;;;;;;22.34;65.38;99657.22;5015774;28;20526;-67
2022/09/15 09:28:30;;;;;;;0.38;0.20;;;;;;;22.18;63.51;99652.81;5027591;28;20064;-65
2022/09/15 09:31:04;;;;;;;0.40;0.20;;;;;;;22.11;64.26;99644.13;5029421;28;20117;-65
2022/09/15 09:33:55;;;;;;;1.08;0.28;;;;;;;22.13;62.73;99660.88;5018274;28;20092;-66
2022/09/15 09:36:20;;;;;;;0.23;0.10;;;;;;;21.92;62.24;99651.59;5033103;23;20524;-74
2022/09/15 09:38:47;;;;;;;1.30;0.20;;;;;;;21.62;63.32;99654.41;5058308;28;20070;-73
2022/09/15 09:41:21;;;;;;;1.42;0.20;;;;;;;21.31;64.28;99641.53;5036957;28;20028;-74
2022/09/15 09:43:48;;;;;;;3.10;0.22;;;;;;;21.17;64.88;99644.09;5032015;28;20478;-74
2022/09/15 09:46:16;;;;;;;1.55;0.30;;;;;;;21.03;64.86;99641.91;5017727;28;20040;-72
2022/09/15 09:48:46;;;;;;;0.45;0.28;;;;;;;20.91;66.03;99638.00;5003695;28;20029;-73
2022/09/15 09:51:30;;;;;;;0.40;0.25;;;;;;;20.82;67.46;99645.44;5037850;28;20045;-73
2022/09/15 09:54:02;;;;;;;0.65;0.20;;;;;;;20.67;70.72;99645.94;5009150;28;20540;-73
2022/09/15 09:56:27;;;;;;;1.55;0.30;;;;;;;20.68;71.94;99654.94;5030028;28;20032;-72
2022/09/15 09:58:53;;;;;;;1.27;0.20;;;;;;;20.48;75.44;99659.97;5016092;28;20381;-72
2022/09/15 10:01:21;;;;;;;3.08;0.40;;;;;;;20.29;77.28;99667.28;5030486;28;20044;-72
2022/09/15 10:03:47;;;;;;;2.95;0.40;;;;;;;20.20;79.27;99671.91;5022370;28;20038;-73
2022/09/15 10:06:22;;;;;;;2.50;0.50;;;;;;;20.36;77.54;99677.97;5030108;28;20091;-72
2022/09/15 10:09:02;;;;;;;1.15;0.40;;;;;;;19.94;78.94;99673.94;5012747;28;20033;-73
2022/09/15 10:11:50;;;;;;;1.00;0.55;;;;;;;19.88;79.62;99681.16;5015238;28;20540;-72
2022/09/15 10:14:21;;;;;;;0.50;0.15;;;;;;;19.74;80.24;99684.41;5027460;28;20039;-72
2022/09/15 10:16:59;;;;;;;0.22;0.17;;;;;;;19.69;80.20;99669.31;5009355;28;20033;-73
2022/09/15 10:19:27;;;;;;;0.90;0.28;;;;;;;19.62;80.76;99668.78;5027857;28;20050;-72
2022/09/15 10:21:53;;;;;;;0.80;0.17;;;;;;;19.62;81.17;99676.97;5029905;28;20104;-73
2022/09/15 10:24:35;;;;;;;1.27;0.20;;;;;;;19.61;82.49;99673.47;5033039;28;20053;-73
2022/09/15 10:27:16;;;;;;;0.13;0.13;;;;;;;19.78;81.59;99669.38;5034221;28;20029;-73
2022/09/15 10:29:41;;;;;;;1.38;0.40;;;;;;;19.89;83.33;99671.00;5030744;28;20041;-73
2022/09/15 10:32:25;;;;;;;0.30;0.00;;;;;;;20.21;83.60;99671.47;5026195;28;20030;-73
2022/09/15 10:35:00;;;;;;;0.75;0.17;;;;;;;20.41;83.63;99663.72;5037266;28;20029;-73
2022/09/15 10:37:37;;;;;;;1.60;0.30;;;;;;;20.58;83.43;99661.56;5014559;28;20525;-73
2022/09/15 10:40:23;;;;;;;0.50;0.15;;;;;;;20.79;81.84;99649.81;5034162;28;20037;-73
2022/09/15 10:42:55;;;;;;;1.35;0.30;;;;;;;21.01;79.73;99653.31;5014363;28;20148;-73
2022/09/15 10:45:27;;;;;;;0.35;0.15;;;;;;;21.21;78.75;99650.97;5017601;28;20029;-73
2022/09/15 10:48:14;;;;;;;0.65;0.20;;;;;;;21.43;76.11;99640.66;5031863;28;20029;-73
2022/09/15 10:50:53;;;;;;;0.85;0.38;;;;;;;21.56;75.21;99644.03;5013752;28;20026;-73
2022/09/15 10:53:53;;;;;;;0.22;0.20;;;;;;;21.65;73.55;99650.75;5014953;28;20387;-73
2022/09/15 10:56:37;;;;;;;2.40;0.38;;;;;;;21.75;73.98;99653.06;5030236;28;20123;-72
2022/09/15 10:59:23;;;;;;;3.33;0.20;;;;;;;21.86;73.36;99653.41;5024052;28;20029;-74
2022/09/15 11:01:58;;;;;;;0.80;0.25;;;;;;;21.91;70.96;99652.06;5018817;28;20045;-74
2022/09/15 11:04:47;;;;;;;1.45;0.20;;;;;;;21.98;67.65;99655.25;5032532;28;20153;-74
2022/09/15 11:07:37;;;;;;;0.70;0.10;;;;;;;21.99;64.90;99656.03;5014582;28;20029;-73
2022/09/15 11:10:31;;;;;;;2.60;0.20;;;;;;;22.28;62.79;99645.31;5015336;28;20029;-70
2022/09/15 11:13:15;;;;;;;0.05;0.05;;;;;;;22.34;63.04;99648.97;5036030;28;20052;-73
2022/09/15 11:16:00;;;;;;;0.47;0.20;;;;;;;22.51;61.77;99644.72;5036722;28;20041;-73
2022/09/15 11:18:25;;;;;;;2.50;0.20;;;;;;;22.61;61.72;99637.97;5025964;28;20033;-73
2022/09/15 11:20:54;;;;;;;0.40;0.20;;;;;;;22.62;60.21;99652.47;5013764;28;20128;-74
2022/09/15 11:23:32;;;;;;;1.20;0.52;;;;;;;22.77;59.21;99650.59;5032305;28;20106;-74
2022/09/15 11:26:11;;;;;;;1.33;0.20;;;;;;;22.81;55.44;99660.22;4999001;28;20029;-73
2022/09/15 11:28:43;;;;;;;1.27;0.35;;;;;;;22.87;54.62;99654.84;5022709;28;20125;-73
2022/09/15 11:31:19;;;;;;;0.85;0.20;;;;;;;22.94;53.26;99655.28;5029391;28;20099;-73
2022/09/15 11:34:15;;;;;;;0.25;0.15;;;;;;;22.92;53.51;99657.72;5010072;28;20036;-69
2022/09/15 11:37:00;;;;;;;0.10;0.10;;;;;;;23.04;52.90;99650.50;4992421;28;20109;-68
2022/09/15 11:39:32;;;;;;;0.30;0.10;;;;;;;23.28;52.96;99662.34;5019605;28;20060;-71
2022/09/15 11:42:06;;;;;;;0.25;0.10;;;;;;;23.32;49.51;99657.47;5022152;28;20029;-70
2022/09/15 11:44:34;;;;;;;0.20;0.10;;;;;;;23.34;50.36;99685.25;5020138;28;20600;-70
2022/09/15 11:47:25;;;;;;;0.10;0.00;;;;;;;23.27;51.74;99689.06;4998535;28;20037;-70
2022/09/15 11:50:02;;;;;;;0.30;0.20;;;;;;;22.79;54.45;99695.63;5010495;28;20432;-69
2022/09/15 11:52:37;;;;;;;0.43;0.10;;;;;;;22.55;56.46;99694.69;5017646;28;20095;-73